createdAt,value
2018-07-23T00:02:25.004Z,14.03
2018-07-23T00:04:53.921Z,13.57
2018-07-23T00:07:22.841Z,17.60
2018-07-23T00:09:51.627Z,19.17
2018-07-23T00:12:20.867Z,18.27
2018-07-23T00:14:49.722Z,17.40
2018-07-23T00:17:18.579Z,16.97
2018-07-23T00:19:47.146Z,16.30
2018-07-23T00:22:16.003Z,15.03
2018-07-23T00:24:44.979Z,14.40
2018-07-23T00:27:14.057Z,15.40
2018-07-23T00:29:42.870Z,16.53
2018-07-23T00:32:11.803Z,14.53
2018-07-23T00:34:40.684Z,13.93
2018-07-23T00:37:09.524Z,13.47
2018-07-23T00:39:38.311Z,13.13
2018-07-23T00:42:07.235Z,12.50
2018-07-23T00:44:36.159Z,12.43
2018-07-23T00:47:05.675Z,12.73
2018-07-23T00:49:34.659Z,13.10
2018-07-23T00:52:04.570Z,11.90
2018-07-23T00:54:33.375Z,11.63
2018-07-23T00:57:02.603Z,11.67
2018-07-23T00:59:31.566Z,12.60
2018-07-23T01:02:00.416Z,12.23
2018-07-23T01:04:29.219Z,11.83
2018-07-23T01:06:58.255Z,12.70
2018-07-23T01:09:27.182Z,13.03
2018-07-23T01:11:56.059Z,13.00
2018-07-23T01:14:24.866Z,12.17
2018-07-23T01:16:53.678Z,11.87
2018-07-23T01:19:23.386Z,12.00
2018-07-23T01:21:54.780Z,11.80
2018-07-23T01:24:23.670Z,12.13
2018-07-23T01:26:52.513Z,11.20
2018-07-23T01:29:21.336Z,12.30
2018-07-23T01:31:50.184Z,11.07
2018-07-23T01:34:19.008Z,13.30
2018-07-23T01:36:47.833Z,11.70
2018-07-23T01:39:18.140Z,11.70
2018-07-23T01:41:47.674Z,11.57
2018-07-23T01:44:17.167Z,12.20
2018-07-23T01:46:47.976Z,11.93
2018-07-23T01:49:20.099Z,12.03
2018-07-23T01:51:51.530Z,12.70
2018-07-23T01:54:21.575Z,11.80
2018-07-23T01:56:53.019Z,11.87
2018-07-23T01:59:23.238Z,12.20
2018-07-23T02:01:52.042Z,12.83
2018-07-23T02:04:20.875Z,13.27
2018-07-23T02:06:49.769Z,11.73
2018-07-23T02:09:18.720Z,12.73
2018-07-23T02:11:47.533Z,12.20
2018-07-23T02:14:16.351Z,12.27
2018-07-23T02:16:45.175Z,11.87
2018-07-23T02:19:14.025Z,12.73
2018-07-23T02:21:42.792Z,13.63
2018-07-23T02:24:11.618Z,12.17
2018-07-23T02:26:40.411Z,12.73
2018-07-23T02:29:09.230Z,12.00
2018-07-23T02:31:38.015Z,11.63
2018-07-23T02:34:06.828Z,13.57
2018-07-23T02:36:35.634Z,12.97
2018-07-23T02:39:07.834Z,12.47
2018-07-23T02:41:36.679Z,12.00
2018-07-23T02:44:05.763Z,12.30
2018-07-23T02:46:34.575Z,11.30
2018-07-23T02:49:03.488Z,12.40
2018-07-23T02:51:32.301Z,12.97
2018-07-23T02:54:01.123Z,11.73
2018-07-23T02:56:29.936Z,12.63
2018-07-23T02:58:58.756Z,11.47
2018-07-23T03:01:27.636Z,12.40
2018-07-23T03:03:56.959Z,11.97
2018-07-23T03:06:27.625Z,12.53
2018-07-23T03:08:56.606Z,12.37
2018-07-23T03:11:25.692Z,12.67
2018-07-23T03:13:54.535Z,12.43
2018-07-23T03:16:23.365Z,12.63
2018-07-23T03:18:52.250Z,13.70
2018-07-23T03:21:21.407Z,14.00
2018-07-23T03:23:50.231Z,13.03
2018-07-23T03:26:19.012Z,13.30
2018-07-23T03:28:47.833Z,14.07
2018-07-23T03:31:16.614Z,14.63
2018-07-23T03:33:45.414Z,14.57
2018-07-23T03:36:14.212Z,14.13
2018-07-23T03:38:43.019Z,13.93
2018-07-23T03:41:11.837Z,14.20
2018-07-23T03:43:40.793Z,13.30
2018-07-23T03:46:09.590Z,14.27
2018-07-23T03:48:38.399Z,14.30
2018-07-23T03:51:07.710Z,13.53
2018-07-23T03:53:36.662Z,15.13
2018-07-23T03:56:05.735Z,14.40
2018-07-23T03:58:34.544Z,15.00
2018-07-23T04:01:03.596Z,14.77
2018-07-23T04:03:32.396Z,14.63
2018-07-23T04:06:01.290Z,14.67
2018-07-23T04:08:30.234Z,18.50
2018-07-23T04:10:59.022Z,14.97
2018-07-23T04:13:27.815Z,20.83
2018-07-23T04:15:57.104Z,16.63
2018-07-23T04:18:26.359Z,17.30
2018-07-23T04:20:55.162Z,16.40
2018-07-23T04:23:23.967Z,14.93
2018-07-23T04:25:52.791Z,16.50
2018-07-23T04:28:21.623Z,14.83
2018-07-23T04:30:50.754Z,14.27
2018-07-23T04:33:19.561Z,14.57
2018-07-23T04:35:48.363Z,14.60
2018-07-23T04:38:17.203Z,14.57
2018-07-23T04:40:46.083Z,13.60
2018-07-23T04:43:14.902Z,14.33
2018-07-23T04:45:43.695Z,14.60
2018-07-23T04:48:12.558Z,16.87
2018-07-23T04:50:41.435Z,15.30
2018-07-23T04:53:10.260Z,14.90
2018-07-23T04:55:39.051Z,16.60
2018-07-23T04:58:07.864Z,16.83
2018-07-23T05:00:36.667Z,16.10
2018-07-23T05:03:05.534Z,15.90
2018-07-23T05:05:34.092Z,15.80
2018-07-23T05:08:02.867Z,15.73
2018-07-23T05:10:32.188Z,15.97
2018-07-23T05:13:01.041Z,15.03
2018-07-23T05:15:29.873Z,16.20
2018-07-23T05:17:59.757Z,15.60
2018-07-23T05:20:28.531Z,16.03
2018-07-23T05:22:57.375Z,16.50
2018-07-23T05:25:26.184Z,16.27
2018-07-23T05:27:55.140Z,15.63
2018-07-23T05:30:23.992Z,16.40
2018-07-23T05:32:52.803Z,16.40
2018-07-23T05:35:21.708Z,16.70
2018-07-23T05:37:50.495Z,16.87
2018-07-23T05:40:19.344Z,17.17
2018-07-23T05:42:48.246Z,16.57
2018-07-23T05:45:17.067Z,17.80
2018-07-23T05:47:45.858Z,20.20
2018-07-23T05:50:14.660Z,17.73
2018-07-23T05:52:43.488Z,17.53
2018-07-23T05:55:12.320Z,17.10
2018-07-23T05:57:41.133Z,20.27
2018-07-23T06:00:09.920Z,17.57
2018-07-23T06:02:38.735Z,18.57
2018-07-23T06:05:07.766Z,16.43
2018-07-23T06:07:36.546Z,17.37
2018-07-23T06:10:05.795Z,16.93
2018-07-23T06:12:34.594Z,18.07
2018-07-23T06:15:03.564Z,16.30
2018-07-23T06:17:32.376Z,16.63
2018-07-23T06:20:02.244Z,16.60
2018-07-23T06:22:31.082Z,15.80
2018-07-23T06:24:59.893Z,15.57
2018-07-23T06:27:28.708Z,17.33
2018-07-23T06:29:57.554Z,16.37
2018-07-23T06:32:26.351Z,16.50
2018-07-23T06:34:55.170Z,16.40
2018-07-23T06:37:23.963Z,16.57
2018-07-23T06:39:52.775Z,17.30
2018-07-23T06:42:21.567Z,17.00
2018-07-23T06:44:50.379Z,18.13
2018-07-23T06:47:19.187Z,16.93
2018-07-23T06:49:47.993Z,17.20
2018-07-23T06:52:16.785Z,18.20
2018-07-23T06:54:45.691Z,17.90
2018-07-23T06:57:14.500Z,16.97
2018-07-23T06:59:43.263Z,19.23
2018-07-23T07:02:12.181Z,16.43
2018-07-23T07:04:41.013Z,22.57
2018-07-23T07:07:09.904Z,17.60
2018-07-23T07:09:38.740Z,17.03
2018-07-23T07:12:07.543Z,17.17
2018-07-23T07:14:36.334Z,19.13
2018-07-23T07:17:05.299Z,18.10
2018-07-23T07:19:36.643Z,16.70
2018-07-23T07:22:05.199Z,17.40
2018-07-23T07:24:33.915Z,17.10
2018-07-23T07:27:02.766Z,17.53
2018-07-23T07:29:31.579Z,17.97
2018-07-23T07:32:00.383Z,18.00
2018-07-23T07:34:29.183Z,17.83
2018-07-23T07:36:57.986Z,18.60
2018-07-23T07:39:26.783Z,18.77
2018-07-23T07:41:55.599Z,19.00
2018-07-23T07:44:24.461Z,20.70
2018-07-23T07:46:53.212Z,19.47
2018-07-23T07:49:22.016Z,19.93
2018-07-23T07:51:50.803Z,21.03
2018-07-23T07:54:19.651Z,20.47
2018-07-23T07:56:48.476Z,20.60
2018-07-23T07:59:17.352Z,20.13
2018-07-23T08:01:46.095Z,20.80
2018-07-23T08:04:14.915Z,20.70
2018-07-23T08:06:43.727Z,20.73
2018-07-23T08:09:12.540Z,20.13
2018-07-23T08:11:41.351Z,20.50
2018-07-23T08:14:10.155Z,20.47
2018-07-23T08:16:38.964Z,20.47
2018-07-23T08:19:07.987Z,20.53
2018-07-23T08:21:36.803Z,20.00
2018-07-23T08:24:05.674Z,21.50
2018-07-23T08:26:34.499Z,20.47
2018-07-23T08:29:03.352Z,21.03
2018-07-23T08:31:32.189Z,19.53
2018-07-23T08:34:00.988Z,18.87
2018-07-23T08:36:29.809Z,19.67
2018-07-23T08:38:58.619Z,19.77
2018-07-23T08:41:27.434Z,19.80
2018-07-23T08:43:56.252Z,20.43
2018-07-23T08:46:25.072Z,19.30
2018-07-23T08:48:53.876Z,20.83
2018-07-23T08:51:22.717Z,20.43
2018-07-23T08:53:51.507Z,19.10
2018-07-23T08:56:20.347Z,20.70
2018-07-23T08:58:49.255Z,20.37
2018-07-23T09:01:18.526Z,19.93
2018-07-23T09:03:47.370Z,20.97
2018-07-23T09:06:16.207Z,20.87
2018-07-23T09:08:45.113Z,19.93
2018-07-23T09:11:13.837Z,18.57
2018-07-23T09:13:42.641Z,18.00
2018-07-23T09:16:11.500Z,17.77
2018-07-23T09:18:40.315Z,16.33
2018-07-23T09:21:09.195Z,15.40
2018-07-23T09:23:38.031Z,16.17
2018-07-23T09:26:06.863Z,14.63
2018-07-23T09:28:35.675Z,15.87
2018-07-23T09:31:04.547Z,14.73
2018-07-23T09:33:33.291Z,14.47
2018-07-23T09:36:02.128Z,14.07
2018-07-23T09:38:30.996Z,13.27
2018-07-23T09:40:59.815Z,14.40
2018-07-23T09:43:28.643Z,14.47
2018-07-23T09:45:57.453Z,13.87
2018-07-23T09:48:26.295Z,12.90
2018-07-23T09:50:55.130Z,12.87
2018-07-23T09:53:23.949Z,12.50
2018-07-23T09:55:52.768Z,12.57
2018-07-23T09:58:21.571Z,13.17
2018-07-23T10:00:54.424Z,13.37
2018-07-23T10:03:23.267Z,13.23
2018-07-23T10:05:52.111Z,14.17
2018-07-23T10:08:21.001Z,13.43
2018-07-23T10:10:49.835Z,13.10
2018-07-23T10:13:18.628Z,13.00
2018-07-23T10:15:47.463Z,13.50
2018-07-23T10:18:16.947Z,14.07
2018-07-23T10:20:46.843Z,13.47
2018-07-23T10:23:15.727Z,13.40
2018-07-23T10:25:44.552Z,12.83
2018-07-23T10:28:13.375Z,13.40
2018-07-23T10:30:42.179Z,13.90
2018-07-23T10:33:11.036Z,12.70
2018-07-23T10:35:39.847Z,13.43
2018-07-23T10:38:08.687Z,13.30
2018-07-23T10:40:38.075Z,13.43
2018-07-23T10:43:06.910Z,12.87
2018-07-23T10:45:35.724Z,12.80
2018-07-23T10:48:04.612Z,12.63
2018-07-23T10:50:33.402Z,12.00
2018-07-23T10:53:02.202Z,12.97
2018-07-23T10:55:31.017Z,12.03
2018-07-23T10:57:59.827Z,11.60
2018-07-23T11:00:28.651Z,11.13
2018-07-23T11:02:57.479Z,11.40
2018-07-23T11:05:26.276Z,10.73
2018-07-23T11:07:55.079Z,11.40
2018-07-23T11:10:23.910Z,11.00
2018-07-23T11:12:52.731Z,11.20
2018-07-23T11:15:21.536Z,10.73
2018-07-23T11:17:50.379Z,9.50
2018-07-23T11:20:19.157Z,10.47
2018-07-23T11:22:47.963Z,12.37
2018-07-23T11:25:38.703Z,9.53
2018-07-23T11:27:45.571Z,10.05
2018-07-23T11:30:14.424Z,9.28
2018-07-23T11:32:43.251Z,8.75
2018-07-23T11:35:12.041Z,9.58
2018-07-23T11:37:40.871Z,11.38
2018-07-23T11:40:09.684Z,9.98
2018-07-23T11:42:38.865Z,9.40
2018-07-23T11:45:07.652Z,8.95
2018-07-23T11:47:36.438Z,9.63
2018-07-23T11:50:05.287Z,8.60
2018-07-23T11:52:34.111Z,9.30
2018-07-23T11:55:02.981Z,11.80
2018-07-23T11:57:31.792Z,11.30
2018-07-23T12:00:00.639Z,8.88
2018-07-23T12:02:29.471Z,9.90
2018-07-23T12:04:58.390Z,10.90
2018-07-23T12:07:27.151Z,8.93
2018-07-23T12:09:55.963Z,10.00
2018-07-23T12:12:24.743Z,10.20
2018-07-23T12:14:53.674Z,10.37
2018-07-23T12:17:23.601Z,11.33
2018-07-23T12:19:52.367Z,10.83
2018-07-23T12:22:21.171Z,9.90
2018-07-23T12:24:49.746Z,11.23
2018-07-23T12:27:18.447Z,9.95
2018-07-23T12:29:47.271Z,9.08
2018-07-23T12:32:16.075Z,11.55
2018-07-23T12:34:44.916Z,13.72
2018-07-23T12:37:13.764Z,9.23
2018-07-23T12:39:42.671Z,8.95
2018-07-23T12:42:11.447Z,8.78
2018-07-23T12:44:40.263Z,9.20
2018-07-23T12:47:09.142Z,8.25
2018-07-23T12:49:37.895Z,8.28
2018-07-23T12:52:06.711Z,7.62
2018-07-23T12:54:35.527Z,7.60
2018-07-23T12:57:04.452Z,7.55
2018-07-23T12:59:33.498Z,8.80
2018-07-23T13:02:02.056Z,7.78
2018-07-23T13:04:30.768Z,7.53
2018-07-23T13:06:59.578Z,8.63
2018-07-23T13:09:28.424Z,7.45
2018-07-23T13:11:57.252Z,7.17
2018-07-23T13:14:26.056Z,7.30
2018-07-23T13:16:54.867Z,7.00
2018-07-23T13:19:23.685Z,7.92
2018-07-23T13:21:52.480Z,7.50
2018-07-23T13:24:21.642Z,8.78
2018-07-23T13:26:50.467Z,7.00
2018-07-23T13:29:19.307Z,8.03
2018-07-23T13:31:48.118Z,7.47
2018-07-23T13:34:16.948Z,6.87
2018-07-23T13:36:45.710Z,7.47
2018-07-23T13:39:14.525Z,6.67
2018-07-23T13:41:43.367Z,7.35
2018-07-23T13:44:12.631Z,8.83
2018-07-23T13:46:41.459Z,7.60
2018-07-23T13:49:10.287Z,7.75
2018-07-23T13:51:39.051Z,11.22
2018-07-23T13:54:07.869Z,10.28
2018-07-23T13:56:36.429Z,10.03
2018-07-23T13:59:05.212Z,9.38
2018-07-23T14:01:34.024Z,10.55
2018-07-23T14:04:02.837Z,11.15
2018-07-23T14:06:31.694Z,10.25
2018-07-23T14:09:00.452Z,9.05
2018-07-23T14:11:29.303Z,9.48
2018-07-23T14:13:58.130Z,9.68
2018-07-23T14:16:26.947Z,8.73
2018-07-23T14:18:55.796Z,10.95
2018-07-23T14:21:24.603Z,8.43
2018-07-23T14:23:53.436Z,8.93
2018-07-23T14:26:22.219Z,8.68
2018-07-23T14:28:51.026Z,7.92
2018-07-23T14:31:19.868Z,10.58
2018-07-23T14:33:48.718Z,8.43
2018-07-23T14:36:17.523Z,9.55
2018-07-23T14:38:46.338Z,9.70
2018-07-23T14:41:15.393Z,8.23
2018-07-23T14:43:44.228Z,8.75
2018-07-23T14:46:13.055Z,7.60
2018-07-23T14:48:41.897Z,7.95
2018-07-23T14:51:10.735Z,9.00
2018-07-23T14:53:39.535Z,8.18
2018-07-23T14:56:08.347Z,6.97
2018-07-23T14:58:37.130Z,8.50
2018-07-23T15:01:06.072Z,7.17
2018-07-23T15:03:34.904Z,6.67
2018-07-23T15:06:03.761Z,7.75
2018-07-23T15:08:32.571Z,7.47
2018-07-23T15:11:01.483Z,7.08
2018-07-23T15:13:30.283Z,10.20
2018-07-23T15:15:59.135Z,10.82
2018-07-23T15:18:28.133Z,7.25
2018-07-23T15:20:56.990Z,7.35
2018-07-23T15:23:25.798Z,6.75
2018-07-23T15:25:55.724Z,7.08
2018-07-23T15:28:24.526Z,8.05
2018-07-23T15:30:53.319Z,7.10
2018-07-23T15:33:22.099Z,7.03
2018-07-23T15:35:50.883Z,11.25
2018-07-23T15:38:19.719Z,7.30
2018-07-23T15:40:48.258Z,9.63
2018-07-23T15:43:16.943Z,8.10
2018-07-23T15:45:46.015Z,8.53
2018-07-23T15:48:14.639Z,7.97
2018-07-23T15:50:43.432Z,7.70
2018-07-23T15:53:12.306Z,7.03
2018-07-23T15:55:41.090Z,11.57
2018-07-23T15:58:09.900Z,7.45
2018-07-23T16:00:38.766Z,6.50
2018-07-23T16:03:07.556Z,9.28
2018-07-23T16:05:36.350Z,8.08
2018-07-23T16:08:05.261Z,6.15
2018-07-23T16:10:34.075Z,7.20
2018-07-23T16:13:02.851Z,8.38
2018-07-23T16:15:31.642Z,7.05
2018-07-23T16:18:00.431Z,9.25
2018-07-23T16:20:29.236Z,6.90
2018-07-23T16:22:58.011Z,8.80
2018-07-23T16:25:26.803Z,7.33
2018-07-23T16:27:55.330Z,7.53
2018-07-23T16:30:24.023Z,6.80
2018-07-23T16:32:52.803Z,9.03
2018-07-23T16:35:21.594Z,19.87
2018-07-23T16:37:50.394Z,15.50
2018-07-23T16:40:19.191Z,42.45
2018-07-23T16:42:47.999Z,14.45
2018-07-23T16:45:16.827Z,16.90
2018-07-23T16:47:45.627Z,16.75
2018-07-23T16:50:14.398Z,12.60
2018-07-23T16:52:43.214Z,10.13
2018-07-23T16:55:12.047Z,9.65
2018-07-23T16:57:40.887Z,7.75
2018-07-23T17:00:09.779Z,8.33
2018-07-23T17:02:38.571Z,8.05
2018-07-23T17:05:07.360Z,8.95
2018-07-23T17:07:36.202Z,10.10
2018-07-23T17:10:05.061Z,9.33
2018-07-23T17:12:33.939Z,8.00
2018-07-23T17:15:02.839Z,8.60
2018-07-23T17:17:31.652Z,8.73
2018-07-23T17:20:00.466Z,7.90
2018-07-23T17:22:29.343Z,7.40
2018-07-23T17:24:58.159Z,7.78
2018-07-23T17:27:26.939Z,7.92
2018-07-23T17:29:55.825Z,11.25
2018-07-23T17:32:24.610Z,7.47
2018-07-23T17:34:53.987Z,14.15
2018-07-23T17:37:22.816Z,9.10
2018-07-23T17:39:51.696Z,8.50
2018-07-23T17:42:20.483Z,13.05
2018-07-23T17:44:49.322Z,13.25
2018-07-23T17:47:18.171Z,10.23
2018-07-23T17:49:46.976Z,20.35
2018-07-23T17:52:15.906Z,11.18
2018-07-23T17:54:45.518Z,9.58
2018-07-23T17:57:14.306Z,9.55
2018-07-23T17:59:43.101Z,9.23
2018-07-23T18:02:12.043Z,8.83
2018-07-23T18:04:40.851Z,9.53
2018-07-23T18:07:09.657Z,11.35
2018-07-23T18:09:38.433Z,12.07
2018-07-23T18:12:07.786Z,15.80
2018-07-23T18:14:36.566Z,11.83
2018-07-23T18:17:05.506Z,9.23
2018-07-23T18:19:34.298Z,10.20
2018-07-23T18:22:03.087Z,10.10
2018-07-23T18:24:31.875Z,8.37
2018-07-23T18:27:00.672Z,9.50
2018-07-23T18:29:29.527Z,11.80
2018-07-23T18:31:58.320Z,9.83
2018-07-23T18:34:27.106Z,9.73
2018-07-23T18:36:55.941Z,9.47
2018-07-23T18:39:24.691Z,11.00
2018-07-23T18:41:53.494Z,9.27
2018-07-23T18:44:22.251Z,9.03
2018-07-23T18:46:51.096Z,9.50
2018-07-23T18:49:38.711Z,9.17
2018-07-23T18:52:07.519Z,9.43
2018-07-23T18:54:36.699Z,9.33
2018-07-23T18:57:06.519Z,9.83
2018-07-23T18:59:35.170Z,9.80
2018-07-23T19:02:05.492Z,9.80
2018-07-23T19:04:34.287Z,10.73
2018-07-23T19:07:03.057Z,10.10
2018-07-23T19:09:31.908Z,10.03
2018-07-23T19:12:01.094Z,10.77
2018-07-23T19:14:29.934Z,11.13
2018-07-23T19:16:59.603Z,10.70
2018-07-23T19:19:28.393Z,10.97
2018-07-23T19:21:57.191Z,10.87
2018-07-23T19:24:25.992Z,13.57
2018-07-23T19:26:54.770Z,11.60
2018-07-23T19:29:23.575Z,11.70
2018-07-23T19:31:52.363Z,12.70
2018-07-23T19:34:21.239Z,13.00
2018-07-23T19:36:50.027Z,11.70
2018-07-23T19:39:19.935Z,12.97
2018-07-23T19:41:48.763Z,12.03
2018-07-23T19:44:17.612Z,12.23
2018-07-23T19:46:46.386Z,12.17
2018-07-23T19:49:15.195Z,12.13
2018-07-23T19:51:44.099Z,11.77
2018-07-23T19:54:12.922Z,12.40
2018-07-23T19:56:41.765Z,12.70
2018-07-23T19:59:10.645Z,13.17
2018-07-23T20:01:39.469Z,12.60
2018-07-23T20:04:08.259Z,11.43
2018-07-23T20:06:37.062Z,12.57
2018-07-23T20:09:09.083Z,11.87
2018-07-23T20:11:37.926Z,12.17
2018-07-23T20:14:06.923Z,12.00
2018-07-23T20:16:35.712Z,13.00
2018-07-23T20:19:04.271Z,12.67
2018-07-23T20:21:32.995Z,12.43
2018-07-23T20:24:01.817Z,11.73
2018-07-23T20:26:30.648Z,12.03
2018-07-23T20:28:59.456Z,14.83
2018-07-23T20:31:28.307Z,12.90
2018-07-23T20:33:57.179Z,12.10
2018-07-23T20:36:25.951Z,11.70
2018-07-23T20:38:54.936Z,12.13
2018-07-23T20:41:23.818Z,12.47
2018-07-23T20:43:52.607Z,12.80
2018-07-23T20:46:21.414Z,13.83
2018-07-23T20:48:50.274Z,14.07
2018-07-23T20:51:19.138Z,13.13
2018-07-23T20:53:47.995Z,12.27
2018-07-23T20:56:16.791Z,12.93
2018-07-23T20:58:45.616Z,11.80
2018-07-23T21:01:14.474Z,11.77
2018-07-23T21:03:43.305Z,12.60
2018-07-23T21:06:12.047Z,12.67
2018-07-23T21:08:40.894Z,12.10
2018-07-23T21:11:09.786Z,12.23
2018-07-23T21:13:38.581Z,12.70
2018-07-23T21:16:07.395Z,13.27
2018-07-23T21:18:36.209Z,12.63
2018-07-23T21:21:05.072Z,13.30
2018-07-23T21:23:33.838Z,13.13
2018-07-23T21:26:02.743Z,13.13
2018-07-23T21:28:31.550Z,13.50
2018-07-23T21:31:00.335Z,14.87
2018-07-23T21:33:29.149Z,12.90
2018-07-23T21:35:57.994Z,13.17
2018-07-23T21:38:26.864Z,13.03
2018-07-23T21:40:55.723Z,12.80
2018-07-23T21:43:24.607Z,12.47
2018-07-23T21:45:53.459Z,12.97
2018-07-23T21:48:22.267Z,13.00
2018-07-23T21:50:51.068Z,12.43
2018-07-23T21:53:20.011Z,13.40
2018-07-23T21:55:48.864Z,12.77
2018-07-23T21:58:17.838Z,12.63
2018-07-23T22:00:46.712Z,12.57
2018-07-23T22:03:15.955Z,12.93
2018-07-23T22:05:44.827Z,12.77
2018-07-23T22:08:13.647Z,13.67
2018-07-23T22:10:42.431Z,14.40
2018-07-23T22:13:11.251Z,13.37
2018-07-23T22:15:40.048Z,13.30
2018-07-23T22:18:08.879Z,14.03
2018-07-23T22:20:37.680Z,12.87
2018-07-23T22:23:06.509Z,13.87
2018-07-23T22:25:36.501Z,13.43
2018-07-23T22:28:05.726Z,13.83
2018-07-23T22:30:34.430Z,13.73
2018-07-23T22:33:03.238Z,14.07
2018-07-23T22:35:32.082Z,13.60
2018-07-23T22:38:00.924Z,13.47
2018-07-23T22:40:29.711Z,12.93
2018-07-23T22:42:58.516Z,13.43
2018-07-23T22:45:27.483Z,12.83
2018-07-23T22:47:56.322Z,12.90
2018-07-23T22:50:25.467Z,13.00
2018-07-23T22:52:54.259Z,13.80
2018-07-23T22:55:23.139Z,12.80
2018-07-23T22:57:51.931Z,13.47
2018-07-23T23:00:20.707Z,15.07
2018-07-23T23:02:49.519Z,13.37
2018-07-23T23:05:18.412Z,13.40
2018-07-23T23:07:47.203Z,13.80
2018-07-23T23:10:16.017Z,14.03
2018-07-23T23:12:44.867Z,12.87
2018-07-23T23:15:13.791Z,12.93
2018-07-23T23:17:42.575Z,12.77
2018-07-23T23:20:11.113Z,12.83
2018-07-23T23:22:39.838Z,12.67
2018-07-23T23:25:08.664Z,12.93
2018-07-23T23:27:37.556Z,13.00
2018-07-23T23:30:06.684Z,12.67
2018-07-23T23:32:35.577Z,12.07
2018-07-23T23:35:04.456Z,13.17
2018-07-23T23:37:33.178Z,13.97
2018-07-23T23:40:01.989Z,13.07
2018-07-23T23:42:30.808Z,13.17
2018-07-23T23:44:59.583Z,13.57
2018-07-23T23:47:28.363Z,14.63
2018-07-23T23:49:57.200Z,13.03
2018-07-23T23:52:26.088Z,13.60
2018-07-23T23:54:54.834Z,13.47
2018-07-23T23:57:23.680Z,12.93
2018-07-23T23:59:52.467Z,13.30
